Time;durP1;ratioP1;P1;durP2;ratioP2;P2;SDS_P1;SDS_P2;PMS_P1;PMS_P2;Temp;Humidity;BMP_temperature;BMP_pressure;BME280_temperature;BME280_humidity;BME280_pressure;Samples;Min_cycle;Max_cycle;Signal;HPM_P1;HPM_P2
2021/03/26 00:01:43;;;;;;;247.33;110.37;;;;;;;0.42;62.90;94924.81;1806897;79;21482;-52
2021/03/26 00:04:13;;;;;;;180.05;83.07;;;;;;;0.49;62.62;94932.99;1806657;79;21117;-52
2021/03/26 00:06:49;;;;;;;179.47;84.85;;;;;;;0.55;62.49;94925.30;1807344;79;22378;-51
2021/03/26 00:09:21;;;;;;;223.22;97.37;;;;;;;0.58;62.30;94927.23;1807297;78;21537;-52
2021/03/26 00:11:51;;;;;;;229.35;113.83;;;;;;;0.53;61.91;94927.58;1807347;79;21072;-51
2021/03/26 00:14:19;;;;;;;223.55;114.17;;;;;;;0.33;62.15;94929.80;1782847;79;21477;-51
2021/03/26 00:16:48;;;;;;;141.03;72.85;;;;;;;0.20;62.63;94931.26;1807298;78;21053;-50
2021/03/26 00:19:17;;;;;;;160.90;80.45;;;;;;;0.20;63.07;94931.85;1807409;79;21399;-51
2021/03/26 00:21:45;;;;;;;130.03;66.87;;;;;;;0.26;62.93;94925.69;1807384;79;21536;-51
2021/03/26 00:24:13;;;;;;;147.53;74.97;;;;;;;0.34;62.77;94929.21;1807255;78;21533;-52
2021/03/26 00:26:41;;;;;;;156.15;76.22;;;;;;;0.37;62.72;94937.95;1807305;78;21621;-52
2021/03/26 00:29:13;;;;;;;91.17;51.50;;;;;;;0.44;62.50;94927.92;1804697;79;21141;-54
2021/03/26 00:31:42;;;;;;;100.90;52.83;;;;;;;0.45;62.12;94925.41;1807256;79;21261;-50
2021/03/26 00:34:10;;;;;;;84.40;46.55;;;;;;;0.39;61.94;94929.64;1807210;79;21081;-52
2021/03/26 00:36:38;;;;;;;93.78;53.83;;;;;;;0.27;61.95;94928.62;1807330;79;21062;-52
2021/03/26 00:39:07;;;;;;;86.12;48.65;;;;;;;0.11;62.28;94932.18;1807285;78;21058;-51
2021/03/26 00:41:36;;;;;;;96.55;52.83;;;;;;;0.06;62.83;94929.80;1807405;79;21058;-53
2021/03/26 00:44:06;;;;;;;77.97;43.95;;;;;;;0.10;62.91;94929.84;1782923;79;21368;-51
2021/03/26 00:46:37;;;;;;;79.22;42.10;;;;;;;0.20;62.84;94935.31;1807207;78;21140;-51
2021/03/26 00:49:06;;;;;;;82.45;45.10;;;;;;;0.28;62.53;94926.67;1807318;79;21077;-51
2021/03/26 00:51:36;;;;;;;80.70;43.30;;;;;;;0.19;62.55;94931.06;1807305;79;21141;-52
2021/03/26 00:54:06;;;;;;;88.97;50.65;;;;;;;0.19;62.85;94936.47;1807263;79;21134;-52
2021/03/26 00:56:34;;;;;;;82.30;45.60;;;;;;;0.25;62.79;94924.73;1756008;79;22110;-51
2021/03/26 00:59:04;;;;;;;74.95;43.92;;;;;;;0.25;62.71;94927.44;1807199;79;21180;-51
2021/03/26 01:01:33;;;;;;;79.82;44.80;;;;;;;0.25;62.55;94929.55;1807290;79;21133;-51
2021/03/26 01:04:02;;;;;;;91.05;46.40;;;;;;;0.06;62.47;94926.34;1807345;79;21564;-53
2021/03/26 01:06:32;;;;;;;81.80;45.58;;;;;;;-0.02;63.04;94924.72;1807363;79;21105;-52
2021/03/26 01:09:01;;;;;;;73.80;39.88;;;;;;;0.00;62.93;94925.15;1807354;78;21311;-51
2021/03/26 01:11:32;;;;;;;77.27;44.85;;;;;;;0.02;63.09;94926.90;1807318;78;21501;-50
2021/03/26 01:14:04;;;;;;;57.45;32.55;;;;;;;0.07;62.98;94925.95;1806236;78;21137;-52
2021/03/26 01:16:35;;;;;;;62.48;32.53;;;;;;;0.02;62.65;94918.78;1807256;79;21062;-53
2021/03/26 01:19:07;;;;;;;71.82;39.03;;;;;;;-0.10;62.82;94928.54;1807292;79;21058;-52
2021/03/26 01:21:37;;;;;;;79.85;43.63;;;;;;;-0.10;62.98;94931.23;1807300;78;21345;-51
2021/03/26 01:24:09;;;;;;;103.00;47.73;;;;;;;-0.07;62.82;94924.31;1807285;79;21077;-52
2021/03/26 01:26:37;;;;;;;90.70;46.35;;;;;;;-0.07;62.76;94922.38;1807557;79;21062;-51
2021/03/26 01:29:07;;;;;;;117.45;63.58;;;;;;;-0.14;62.62;94924.24;1805683;79;21066;-52
2021/03/26 01:31:45;;;;;;;96.95;50.45;;;;;;;-0.15;63.19;94924.05;1851970;75;22617;-53
2021/03/26 01:34:13;;;;;;;100.27;53.08;;;;;;;-0.17;63.03;94933.11;1808568;78;21497;-51
2021/03/26 01:36:43;;;;;;;84.13;46.75;;;;;;;-0.15;63.05;94924.05;1807925;78;21369;-51
2021/03/26 01:39:13;;;;;;;81.05;47.48;;;;;;;-0.15;62.89;94928.10;1808491;79;20919;-51
2021/03/26 01:41:46;;;;;;;78.62;42.17;;;;;;;-0.11;63.04;94923.48;1808664;79;21478;-53
2021/03/26 01:44:21;;;;;;;83.27;43.33;;;;;;;-0.10;62.63;94922.34;1779677;79;21046;-51
2021/03/26 01:46:49;;;;;;;78.67;44.25;;;;;;;-0.19;62.52;94926.71;1808587;79;21136;-52
2021/03/26 01:49:20;;;;;;;78.02;45.15;;;;;;;-0.26;62.94;94924.55;1808515;78;21358;-51
2021/03/26 01:51:50;;;;;;;67.80;39.65;;;;;;;-0.23;62.96;94923.21;1808344;78;21014;-50
2021/03/26 01:54:21;;;;;;;74.47;40.80;;;;;;;-0.22;63.05;94922.06;1808517;79;21156;-51
2021/03/26 01:56:52;;;;;;;79.20;42.98;;;;;;;-0.19;62.96;94924.60;1756205;79;21129;-52
2021/03/26 01:59:40;;;;;;;49.93;29.80;;;;;;;-0.18;62.83;94920.75;1806774;78;21132;-50
2021/03/26 02:02:17;;;;;;;46.40;26.02;;;;;;;-0.18;62.49;94928.30;1779577;79;21108;-51
2021/03/26 02:05:08;;;;;;;43.68;25.55;;;;;;;-0.23;62.58;94931.91;1808510;78;21513;-53
2021/03/26 02:07:38;;;;;;;42.08;24.32;;;;;;;-0.21;62.65;94939.06;1808203;79;21152;-52
2021/03/26 02:10:10;;;;;;;53.28;28.65;;;;;;;-0.25;62.44;94939.63;1808494;78;21124;-51
2021/03/26 02:12:40;;;;;;;55.73;34.45;;;;;;;-0.37;62.89;94938.54;1808549;78;21120;-53
2021/03/26 02:15:20;;;;;;;62.20;34.00;;;;;;;-0.41;62.74;94942.55;1808341;79;22315;-51
2021/03/26 02:17:49;;;;;;;57.65;32.63;;;;;;;-0.46;62.71;94944.81;1808587;78;21156;-50
2021/03/26 02:20:37;;;;;;;63.35;33.02;;;;;;;-0.47;62.83;94951.37;1808638;79;21572;-51
2021/03/26 02:23:21;;;;;;;54.20;32.25;;;;;;;-0.53;62.71;94948.25;1808323;79;21510;-51
2021/03/26 02:25:52;;;;;;;58.10;32.85;;;;;;;-0.59;62.79;94948.36;1780176;79;21113;-51
2021/03/26 02:28:21;;;;;;;58.95;31.10;;;;;;;-0.59;62.89;94951.66;1779906;79;22276;-52
2021/03/26 02:30:55;;;;;;;51.98;32.83;;;;;;;-0.55;62.88;94948.41;1806103;78;21144;-51
2021/03/26 02:33:24;;;;;;;61.77;34.88;;;;;;;-0.46;62.85;94955.63;1808454;78;21493;-51
2021/03/26 02:36:17;;;;;;;53.87;29.30;;;;;;;-0.45;62.45;94951.80;1779274;79;21062;-52
2021/03/26 02:38:56;;;;;;;70.05;32.38;;;;;;;-0.52;62.39;94956.56;1791560;78;21158;-51
2021/03/26 02:41:35;;;;;;;55.38;28.73;;;;;;;-0.61;62.28;94953.37;1805338;78;21198;-51
2021/03/26 02:44:27;;;;;;;60.55;32.90;;;;;;;-0.61;62.44;94960.12;1807988;79;21065;-52
2021/03/26 02:47:10;;;;;;;62.50;33.57;;;;;;;-0.63;62.08;94959.72;1807917;78;21172;-52
2021/03/26 02:49:53;;;;;;;61.85;32.93;;;;;;;-0.71;62.27;94965.41;1807788;78;21125;-51
2021/03/26 02:52:54;;;;;;;57.75;30.40;;;;;;;-0.73;62.37;94960.96;1807977;79;21564;-51
2021/03/26 02:55:48;;;;;;;58.68;32.25;;;;;;;-0.74;62.47;94970.21;1808015;78;22109;-52
2021/03/26 02:58:32;;;;;;;66.25;38.25;;;;;;;-0.73;62.35;94971.77;1807403;79;21179;-52
2021/03/26 03:01:16;;;;;;;53.90;33.20;;;;;;;-0.72;62.22;94971.41;1806074;79;21089;-51
2021/03/26 03:03:45;;;;;;;46.20;27.50;;;;;;;-0.70;62.29;94973.16;1808086;79;21133;-52
2021/03/26 03:06:26;;;;;;;49.53;30.23;;;;;;;-0.69;62.33;94973.92;1807933;79;21070;-52
2021/03/26 03:09:14;;;;;;;44.60;27.52;;;;;;;-0.62;62.00;94974.02;1807930;78;21307;-51
2021/03/26 03:12:08;;;;;;;44.23;26.97;;;;;;;-0.70;61.82;94977.77;1807889;79;21085;-53
2021/03/26 03:14:56;;;;;;;54.48;34.67;;;;;;;-0.71;61.87;94982.97;1806432;79;21137;-51
2021/03/26 03:17:38;;;;;;;51.18;30.68;;;;;;;-0.70;61.74;94987.23;1807672;79;21481;-51
2021/03/26 03:20:14;;;;;;;46.30;28.90;;;;;;;-0.69;61.63;94990.92;1807755;78;21172;-51
2021/03/26 03:22:47;;;;;;;46.18;26.48;;;;;;;-0.64;61.55;94992.48;1807985;79;21132;-52
2021/03/26 03:25:20;;;;;;;45.28;28.65;;;;;;;-0.60;61.29;94998.73;1807836;79;21088;-50
2021/03/26 03:28:29;;;;;;;51.77;29.10;;;;;;;-0.61;61.11;95000.64;1808011;78;21172;-50
2021/03/26 03:31:22;;;;;;;44.25;26.48;;;;;;;-0.66;61.20;94994.78;1800192;77;21088;-51
2021/03/26 03:34:37;;;;;;;32.73;21.07;;;;;;;-0.70;61.10;95000.17;1799948;79;21092;-51
2021/03/26 03:37:15;;;;;;;41.50;25.12;;;;;;;-0.80;61.16;95006.80;1799883;79;22031;-51
2021/03/26 03:40:07;;;;;;;41.23;24.25;;;;;;;-0.93;61.37;95008.19;1798942;79;21064;-51
2021/03/26 03:42:47;;;;;;;44.98;25.82;;;;;;;-1.07;61.72;95006.66;1781798;79;21069;-50
2021/03/26 03:45:41;;;;;;;53.08;31.68;;;;;;;-1.14;61.98;95002.53;1799911;79;21588;-50
2021/03/26 03:48:22;;;;;;;50.70;29.15;;;;;;;-1.13;62.13;94998.69;1798750;79;21517;-50
2021/03/26 03:51:09;;;;;;;40.55;24.85;;;;;;;-1.09;61.89;95000.30;1799718;79;21419;-50
2021/03/26 03:53:42;;;;;;;42.50;26.70;;;;;;;-1.15;61.95;94996.93;1791674;79;21116;-50
2021/03/26 03:56:41;;;;;;;56.75;34.33;;;;;;;-1.23;62.31;95003.36;1799427;79;21120;-50
2021/03/26 03:59:14;;;;;;;54.18;30.37;;;;;;;-1.24;62.46;94999.11;1799747;78;21124;-51
2021/03/26 04:01:51;;;;;;;54.23;31.17;;;;;;;-1.20;62.42;95003.98;1795756;79;21492;-50
2021/03/26 04:04:27;;;;;;;54.58;31.00;;;;;;;-1.30;62.34;95001.34;1799911;78;21459;-50
2021/03/26 04:07:01;;;;;;;43.68;28.52;;;;;;;-1.33;62.45;95002.08;1799873;79;21839;-49
2021/03/26 04:09:36;;;;;;;46.13;28.92;;;;;;;-1.28;62.49;95008.53;1799937;78;21128;-51
2021/03/26 04:12:10;;;;;;;54.05;31.10;;;;;;;-1.23;62.18;95010.11;1799864;79;21056;-50
2021/03/26 04:15:13;;;;;;;51.45;31.40;;;;;;;-1.23;62.04;95006.06;1786445;79;21113;-51
2021/03/26 04:17:56;;;;;;;45.50;28.90;;;;;;;-1.30;61.95;95004.05;1800021;78;21065;-50
2021/03/26 04:20:55;;;;;;;47.73;29.27;;;;;;;-1.35;61.99;94995.52;1798594;79;21085;-51
2021/03/26 04:23:33;;;;;;;52.50;30.15;;;;;;;-1.44;62.40;94994.99;1799842;78;21512;-51
2021/03/26 04:26:11;;;;;;;67.22;35.00;;;;;;;-1.37;62.34;94999.91;1798779;79;21089;-52
2021/03/26 04:29:28;;;;;;;94.58;49.50;;;;;;;-1.38;62.33;95005.66;1799875;78;21516;-51
2021/03/26 04:32:06;;;;;;;90.87;46.70;;;;;;;-1.35;62.40;95011.70;1799634;78;21371;-52
2021/03/26 04:34:37;;;;;;;77.95;41.77;;;;;;;-1.32;62.20;95016.36;1799872;79;21512;-51
2021/03/26 04:37:20;;;;;;;53.55;31.42;;;;;;;-1.34;62.26;95014.61;1784944;79;21065;-52
2021/03/26 04:39:58;;;;;;;40.73;25.92;;;;;;;-1.30;62.23;95014.08;1799854;79;21139;-52
2021/03/26 04:43:03;;;;;;;36.40;24.23;;;;;;;-1.20;61.99;95016.91;1785385;79;21583;-51
2021/03/26 04:46:12;;;;;;;63.28;33.75;;;;;;;-1.11;61.62;95019.34;1799873;79;21064;-51
2021/03/26 04:48:57;;;;;;;69.30;37.48;;;;;;;-1.03;61.43;95024.45;1794366;79;21124;-51
2021/03/26 04:51:35;;;;;;;72.15;38.00;;;;;;;-1.04;61.24;95028.30;1797022;78;21508;-51
2021/03/26 04:54:22;;;;;;;58.95;32.78;;;;;;;-1.03;61.30;95027.16;1798589;78;21072;-51
2021/03/26 04:56:57;;;;;;;47.13;26.30;;;;;;;-1.03;61.41;95035.81;1784449;79;21096;-50
2021/03/26 04:59:52;;;;;;;48.05;28.15;;;;;;;-0.97;61.55;95035.72;1797485;79;21252;-51
2021/03/26 05:02:23;;;;;;;42.40;27.98;;;;;;;-0.84;61.25;95034.31;1799899;79;21548;-51
2021/03/26 05:04:55;;;;;;;50.75;29.67;;;;;;;-0.76;61.03;95040.02;1799892;79;21099;-52
2021/03/26 05:07:33;;;;;;;49.75;29.12;;;;;;;-0.85;60.72;95042.22;1799069;78;21112;-51
2021/03/26 05:10:05;;;;;;;64.50;36.93;;;;;;;-1.03;60.93;95035.81;1799834;78;21135;-51
2021/03/26 05:12:55;;;;;;;58.13;34.55;;;;;;;-1.15;61.66;95046.27;1785901;79;21434;-51
2021/03/26 05:15:50;;;;;;;56.95;34.18;;;;;;;-1.11;62.08;95044.98;1873622;76;22715;-52
2021/03/26 05:18:46;;;;;;;53.25;31.68;;;;;;;-1.06;62.33;95055.45;1841515;78;21150;-50
2021/03/26 05:21:18;;;;;;;52.08;32.58;;;;;;;-0.89;62.14;95053.55;1841595;78;21318;-52
2021/03/26 05:24:03;;;;;;;61.77;39.45;;;;;;;-0.71;61.70;95051.84;1837446;77;20955;-51
2021/03/26 05:26:50;;;;;;;63.38;35.40;;;;;;;-0.64;61.58;95066.77;1841528;78;21029;-52
2021/03/26 05:29:22;;;;;;;56.88;33.05;;;;;;;-0.51;61.27;95063.48;1839652;78;21002;-51
2021/03/26 05:32:08;;;;;;;54.50;34.70;;;;;;;-0.43;60.97;95065.69;1820444;78;21153;-51
2021/03/26 05:34:53;;;;;;;57.35;34.15;;;;;;;-0.33;61.02;95063.66;1802661;79;22239;-51
2021/03/26 05:37:37;;;;;;;;;;;;;;;-0.23;60.61;95071.11;1811154;78;21158;-51
2021/03/26 05:40:41;;;;;;;53.02;35.98;;;;;;;-0.16;60.55;95073.88;1762937;79;20487;-52
2021/03/26 05:43:59;;;;;;;58.75;37.20;;;;;;;-0.06;60.10;95067.81;1780575;79;21080;-52
2021/03/26 05:46:54;;;;;;;48.08;28.70;;;;;;;-0.08;59.67;95074.17;1808454;78;21180;-53
2021/03/26 05:49:44;;;;;;;60.73;33.60;;;;;;;-0.05;59.25;95078.83;1806281;79;21275;-52
2021/03/26 05:52:48;;;;;;;55.75;30.25;;;;;;;-0.07;58.96;95076.48;1808381;79;21173;-52
2021/03/26 05:55:51;;;;;;;45.65;28.40;;;;;;;-0.11;58.79;95077.03;1808460;78;21073;-51
2021/03/26 05:58:51;;;;;;;53.15;32.70;;;;;;;0.04;58.68;95072.73;1808714;79;21149;-52
2021/03/26 06:01:34;;;;;;;50.00;32.73;;;;;;;0.07;58.52;95077.39;1808549;78;21125;-52
2021/03/26 06:04:35;;;;;;;43.85;28.35;;;;;;;0.05;58.62;95081.05;1808562;79;22340;-50
2021/03/26 06:07:46;;;;;;;49.42;29.37;;;;;;;0.02;58.54;95080.44;1808413;79;21113;-51
2021/03/26 06:10:44;;;;;;;48.68;27.75;;;;;;;-0.06;58.52;95085.38;1808552;79;21105;-52
2021/03/26 06:14:15;;;;;;;43.87;26.02;;;;;;;-0.04;58.79;95078.44;1808417;78;21149;-52
2021/03/26 06:17:38;;;;;;;45.95;28.77;;;;;;;-0.03;58.69;95084.64;1808473;78;21057;-53
2021/03/26 06:20:33;;;;;;;50.45;28.95;;;;;;;-0.04;58.68;95078.44;1808683;78;22298;-53
2021/03/26 06:24:05;;;;;;;50.15;31.65;;;;;;;-0.02;58.60;95076.14;1803996;78;21126;-55
2021/03/26 06:27:07;;;;;;;57.58;33.73;;;;;;;0.06;58.61;95079.89;1732977;80;21122;-52
2021/03/26 06:29:59;;;;;;;38.35;24.40;;;;;;;0.39;58.37;95082.51;1807824;79;21154;-52
2021/03/26 06:33:19;;;;;;;39.63;24.07;;;;;;;0.63;57.85;95078.45;1808102;78;21061;-52
2021/03/26 06:36:20;;;;;;;43.52;23.10;;;;;;;0.80;56.96;95078.56;1807449;78;21239;-53
2021/03/26 06:39:13;;;;;;;36.35;23.67;;;;;;;0.88;56.46;95075.32;1806084;78;21145;-53
2021/03/26 06:42:10;;;;;;;33.58;20.10;;;;;;;0.90;56.29;95079.22;1792197;78;21111;-52
2021/03/26 06:45:02;;;;;;;42.17;25.57;;;;;;;0.96;55.98;95079.05;1775666;80;21247;-51
2021/03/26 06:48:03;;;;;;;46.25;25.70;;;;;;;1.01;56.04;95081.98;1803332;78;21176;-57
2021/03/26 06:51:15;;;;;;;44.93;27.98;;;;;;;1.21;55.91;95084.05;1820839;78;21187;-53
2021/03/26 06:54:12;;;;;;;40.65;22.75;;;;;;;1.31;55.43;95079.24;1732334;82;21224;-55
2021/03/26 06:57:21;;;;;;;44.45;25.05;;;;;;;1.52;55.24;95079.34;1796279;78;21568;-57
2021/03/26 07:00:05;;;;;;;43.38;25.57;;;;;;;1.65;54.77;95076.48;1730922;82;21138;-60
2021/03/26 07:03:04;;;;;;;47.75;30.68;;;;;;;1.84;54.51;95080.23;1734562;81;21469;-55
2021/03/26 07:06:01;;;;;;;50.58;30.45;;;;;;;1.98;54.20;95068.06;1747347;81;21379;-62
2021/03/26 07:09:19;;;;;;;41.15;26.40;;;;;;;2.31;53.60;95073.16;1743270;80;21210;-65
2021/03/26 07:12:16;;;;;;;37.95;23.95;;;;;;;2.56;53.17;95072.02;1743012;81;21200;-59
2021/03/26 07:15:04;;;;;;;50.15;27.85;;;;;;;2.63;52.84;95075.28;1740989;81;21088;-61
2021/03/26 07:17:53;;;;;;;49.48;29.92;;;;;;;2.65;52.55;95079.17;1734243;80;22086;-61
2021/03/26 07:21:06;;;;;;;50.73;31.17;;;;;;;2.83;52.59;95076.47;1725180;81;21397;-56
2021/03/26 07:24:23;;;;;;;46.45;29.30;;;;;;;3.02;52.31;95069.27;1736453;80;21231;-52
2021/03/26 07:27:26;;;;;;;50.28;29.37;;;;;;;3.20;51.93;95070.00;1740606;80;21164;-62
2021/03/26 07:30:20;;;;;;;39.83;25.77;;;;;;;3.24;51.58;95072.13;1744073;80;21260;-57
2021/03/26 07:33:13;;;;;;;60.85;31.02;;;;;;;3.14;52.00;95074.27;1734814;81;22296;-64
2021/03/26 07:35:47;;;;;;;37.97;24.07;;;;;;;3.26;52.10;95068.42;1743380;81;21213;-59
2021/03/26 07:39:00;;;;;;;34.30;22.70;;;;;;;3.53;51.22;95068.92;1748833;81;21129;-59
2021/03/26 07:41:59;;;;;;;40.28;23.75;;;;;;;3.75;50.97;95069.80;1729528;81;21259;-53
2021/03/26 07:44:35;;;;;;;34.45;23.18;;;;;;;3.89;50.40;95064.27;1745840;81;21230;-56
2021/03/26 07:47:48;;;;;;;32.17;21.62;;;;;;;3.88;50.27;95066.81;1730845;81;21205;-59
2021/03/26 07:50:57;;;;;;;43.68;23.80;;;;;;;3.94;50.08;95065.81;1738913;81;22072;-62
2021/03/26 07:53:50;;;;;;;47.80;23.60;;;;;;;4.08;49.85;95066.50;1749957;80;21174;-57
2021/03/26 07:56:28;;;;;;;31.87;21.40;;;;;;;4.12;49.81;95059.69;1743590;80;21136;-61
2021/03/26 07:59:26;;;;;;;27.60;17.92;;;;;;;4.19;49.48;95061.78;1759492;80;21236;-58
2021/03/26 08:02:24;;;;;;;26.42;18.85;;;;;;;4.35;49.37;95058.56;1745330;80;21213;-58
2021/03/26 08:05:20;;;;;;;28.47;21.55;;;;;;;4.55;48.95;95059.00;1730287;80;21286;-56
2021/03/26 08:08:39;;;;;;;38.13;28.38;;;;;;;4.66;48.75;95065.16;1872566;74;27913;-58
2021/03/26 08:11:20;;;;;;;27.82;20.88;;;;;;;4.78;48.52;95068.73;1866101;76;21193;-54
2021/03/26 08:14:11;;;;;;;35.65;21.07;;;;;;;4.96;48.21;95066.63;1850917;77;23149;-55
2021/03/26 08:17:12;;;;;;;27.35;20.70;;;;;;;5.12;47.91;95066.88;1784643;80;21031;-53
2021/03/26 08:20:07;;;;;;;23.67;18.75;;;;;;;5.24;47.69;95061.69;1786166;79;21142;-61
2021/03/26 08:23:14;;;;;;;24.47;19.23;;;;;;;5.49;46.92;95064.94;1747782;80;21195;-57
2021/03/26 08:26:04;;;;;;;28.00;18.80;;;;;;;5.69;46.39;95066.45;1758004;79;21178;-56
2021/03/26 08:28:52;;;;;;;29.12;19.55;;;;;;;5.84;46.35;95061.05;1756458;80;21557;-54
2021/03/26 08:31:43;;;;;;;28.25;21.40;;;;;;;5.94;46.30;95057.42;1763482;79;21242;-60
2021/03/26 08:34:34;;;;;;;52.43;21.80;;;;;;;5.98;46.36;95061.63;1741864;80;21250;-60
2021/03/26 08:37:45;;;;;;;37.73;22.93;;;;;;;6.01;46.20;95060.05;1754311;80;21192;-56
2021/03/26 08:40:22;;;;;;;26.55;19.27;;;;;;;6.06;45.95;95056.85;1787903;79;21197;-57
2021/03/26 08:42:51;;;;;;;47.05;24.63;;;;;;;6.14;45.79;95061.05;1774153;80;22364;-62
2021/03/26 08:45:34;;;;;;;41.50;23.73;;;;;;;6.22;46.12;95055.08;1691034;80;21174;-54
2021/03/26 08:48:23;;;;;;;34.30;22.25;;;;;;;6.44;46.06;95051.43;1758446;80;21143;-61
2021/03/26 08:51:40;;;;;;;34.45;22.67;;;;;;;6.65;45.91;95051.10;1750072;79;21140;-56
2021/03/26 08:54:33;;;;;;;68.45;27.40;;;;;;;6.77;45.54;95052.69;1772227;79;21198;-58
2021/03/26 08:57:24;;;;;;;31.60;23.12;;;;;;;6.88;46.00;95050.53;1744848;79;22291;-54
2021/03/26 09:00:29;;;;;;;28.83;19.42;;;;;;;7.08;47.13;95050.78;1766968;79;21142;-57
2021/03/26 09:03:36;;;;;;;27.37;20.72;;;;;;;7.33;46.50;95048.98;1750167;80;22229;-58
2021/03/26 09:06:37;;;;;;;50.20;21.95;;;;;;;7.51;45.90;95040.60;1755431;79;21345;-56
2021/03/26 09:09:29;;;;;;;31.33;21.68;;;;;;;7.69;44.76;95042.41;1777587;79;21168;-55
2021/03/26 09:12:36;;;;;;;27.32;19.07;;;;;;;7.84;45.35;95038.20;1769091;79;21820;-59
2021/03/26 09:15:31;;;;;;;29.72;20.85;;;;;;;8.00;44.87;95045.69;1726543;80;21488;-66
2021/03/26 09:18:20;;;;;;;28.98;21.93;;;;;;;8.07;43.96;95038.09;1766744;79;22032;-58
2021/03/26 09:21:11;;;;;;;32.20;20.82;;;;;;;8.11;43.86;95036.05;1715409;80;21272;-56
2021/03/26 09:24:07;;;;;;;50.83;24.47;;;;;;;8.22;45.08;95039.37;1769722;80;21183;-62
2021/03/26 09:26:50;;;;;;;27.60;18.77;;;;;;;8.41;45.02;95034.44;1776437;80;21638;-61
2021/03/26 09:29:24;;;;;;;33.28;23.92;;;;;;;8.64;44.40;95039.78;1780291;80;21201;-54
2021/03/26 09:32:14;;;;;;;28.27;20.48;;;;;;;8.87;43.76;95040.23;1730979;80;21201;-57
2021/03/26 09:34:48;;;;;;;28.85;21.60;;;;;;;9.08;43.13;95040.48;1768376;79;21121;-57
2021/03/26 09:37:27;;;;;;;38.17;20.20;;;;;;;9.36;42.22;95043.87;1766908;80;21083;-59
2021/03/26 09:39:58;;;;;;;32.03;18.77;;;;;;;9.61;40.54;95046.75;1782411;80;21208;-55
2021/03/26 09:42:47;;;;;;;28.65;19.95;;;;;;;9.85;42.05;95037.84;1767288;80;21495;-57
2021/03/26 09:45:29;;;;;;;24.70;17.05;;;;;;;10.13;39.69;95041.16;1759653;80;21110;-63
2021/03/26 09:48:16;;;;;;;43.65;28.83;;;;;;;10.29;37.96;95034.80;1778088;80;21211;-56
2021/03/26 09:51:10;;;;;;;28.90;19.50;;;;;;;10.26;38.41;95034.31;1786247;80;21187;-56
2021/03/26 09:53:39;;;;;;;;;;;;;;;10.43;37.49;95034.39;1777782;79;23477;-56
2021/03/26 09:56:31;;;;;;;29.72;18.12;;;;;;;10.73;38.61;95031.27;1789256;79;20336;-55
2021/03/26 09:59:36;;;;;;;26.03;20.07;;;;;;;11.13;37.62;95029.58;1735000;81;21875;-62
2021/03/26 10:02:15;;;;;;;22.77;17.90;;;;;;;11.45;36.35;95027.91;1776033;80;21361;-68
2021/03/26 10:05:22;;;;;;;26.90;19.20;;;;;;;11.86;36.92;95029.66;1736423;80;21650;-60
2021/03/26 10:07:54;;;;;;;25.85;18.12;;;;;;;12.41;35.42;95028.80;1741848;80;21207;-59
2021/03/26 10:13:09;;;;;;;37.63;20.50;;;;;;;13.47;33.21;95029.66;1794737;79;21215;-62
2021/03/26 10:15:45;;;;;;;27.27;16.70;;;;;;;13.92;33.44;95015.24;1764973;79;21222;-58
2021/03/26 10:18:24;;;;;;;20.88;16.62;;;;;;;14.38;32.04;95019.50;1739238;79;21218;-55
2021/03/26 10:21:01;;;;;;;26.20;16.45;;;;;;;14.73;31.60;95015.88;1783880;79;21437;-61
2021/03/26 10:23:51;;;;;;;25.60;16.50;;;;;;;15.22;31.03;95016.89;1796436;79;21184;-60
2021/03/26 10:26:27;;;;;;;20.40;16.42;;;;;;;15.49;30.53;95018.13;1772321;79;21505;-65
2021/03/26 10:29:12;;;;;;;26.40;18.27;;;;;;;15.77;29.73;95009.78;1776255;79;21126;-72
2021/03/26 10:31:38;;;;;;;23.95;17.10;;;;;;;15.96;29.08;95013.34;1788350;80;21206;-60
2021/03/26 10:34:09;;;;;;;21.52;17.32;;;;;;;16.18;30.51;95011.59;1756481;80;21198;-57
2021/03/26 10:36:43;;;;;;;22.58;14.98;;;;;;;16.56;28.35;95009.56;1763386;80;21665;-58
2021/03/26 10:39:25;;;;;;;20.60;13.65;;;;;;;16.87;27.59;95007.05;1760600;80;21181;-61
2021/03/26 10:42:20;;;;;;;20.88;15.93;;;;;;;17.08;28.75;95007.25;1762227;79;28681;-60
2021/03/26 10:45:12;;;;;;;30.17;17.20;;;;;;;17.31;27.26;95014.67;1776621;79;21436;-59
2021/03/26 10:47:52;;;;;;;25.40;16.48;;;;;;;17.27;27.81;95009.94;1776690;80;22083;-58
2021/03/26 10:50:48;;;;;;;21.30;14.40;;;;;;;17.67;28.35;95008.63;1759882;80;21642;-61
2021/03/26 10:53:19;;;;;;;22.65;13.62;;;;;;;18.16;26.18;95001.52;1745851;81;21201;-56
2021/03/26 10:55:53;;;;;;;22.48;14.93;;;;;;;18.40;26.79;95008.36;1777828;79;21562;-60
2021/03/26 10:58:42;;;;;;;19.05;15.45;;;;;;;18.67;27.08;95004.45;1776315;80;21578;-62
2021/03/26 11:01:19;;;;;;;25.60;15.38;;;;;;;19.03;26.32;95002.35;1777139;80;22610;-62
2021/03/26 11:03:58;;;;;;;18.65;14.38;;;;;;;19.41;25.77;94994.16;1775303;80;21210;-61
2021/03/26 11:06:42;;;;;;;19.27;14.28;;;;;;;19.57;24.74;94994.89;1777227;80;21188;-59
2021/03/26 11:09:21;;;;;;;21.80;12.28;;;;;;;19.86;25.57;94992.50;1776275;80;21207;-62
2021/03/26 11:12:03;;;;;;;17.35;13.65;;;;;;;20.06;24.96;94988.78;1774882;80;22422;-59
2021/03/26 11:14:46;;;;;;;22.70;13.68;;;;;;;20.27;24.72;94983.30;1727757;81;21287;-55
2021/03/26 11:17:39;;;;;;;15.75;12.58;;;;;;;20.51;24.37;94979.40;1727710;81;21258;-55
2021/03/26 11:20:39;;;;;;;18.92;14.63;;;;;;;20.68;24.00;94976.61;1772202;79;21195;-60
2021/03/26 11:23:24;;;;;;;16.85;13.18;;;;;;;20.81;23.00;94972.07;1795616;78;21944;-57
2021/03/26 11:26:12;;;;;;;17.20;13.40;;;;;;;21.05;23.72;94968.77;1784346;79;21162;-57
2021/03/26 11:28:54;;;;;;;16.60;13.90;;;;;;;21.24;22.47;94969.15;1762776;81;22870;-56
2021/03/26 11:31:30;;;;;;;14.50;12.98;;;;;;;21.35;22.71;94962.77;1762038;80;21226;-56
2021/03/26 11:34:13;;;;;;;16.57;12.78;;;;;;;21.60;22.50;94963.86;1762149;81;21206;-61
2021/03/26 11:36:50;;;;;;;29.35;20.20;;;;;;;21.92;22.92;94962.89;1762683;81;21583;-59
2021/03/26 11:39:44;;;;;;;25.57;14.20;;;;;;;22.21;22.75;94951.80;1762501;81;21653;-59
2021/03/26 11:42:17;;;;;;;15.08;13.13;;;;;;;22.57;22.93;94956.20;1770765;79;22182;-56
2021/03/26 11:45:02;;;;;;;26.17;13.70;;;;;;;22.88;21.54;94949.45;1756128;80;21174;-62
2021/03/26 11:47:37;;;;;;;15.55;12.93;;;;;;;23.04;21.58;94946.41;1777905;79;21183;-58
2021/03/26 11:50:25;;;;;;;20.30;14.33;;;;;;;23.12;21.33;94943.17;1781947;80;21351;-56
2021/03/26 11:53:26;;;;;;;15.48;12.68;;;;;;;23.14;21.66;94932.95;1775002;79;21227;-56
2021/03/26 11:56:20;;;;;;;22.65;14.63;;;;;;;23.09;22.25;94935.14;1796886;79;21530;-60
2021/03/26 11:59:45;;;;;;;35.80;18.45;;;;;;;23.17;21.29;94929.09;1763970;81;21237;-56
2021/03/26 12:02:20;;;;;;;18.12;12.30;;;;;;;23.12;22.19;94931.31;1793252;79;21178;-61
2021/03/26 12:05:21;;;;;;;32.23;13.75;;;;;;;23.31;21.51;94932.78;1761090;80;21148;-65
2021/03/26 12:08:05;;;;;;;19.50;12.70;;;;;;;23.32;22.17;94932.27;1747002;80;26637;-57
2021/03/26 12:10:38;;;;;;;21.90;14.28;;;;;;;23.41;22.07;94919.27;1740379;80;22044;-59
2021/03/26 12:13:34;;;;;;;23.38;12.70;;;;;;;23.55;20.82;94920.91;1753340;81;21181;-67
2021/03/26 12:16:25;;;;;;;15.25;12.63;;;;;;;23.52;21.82;94919.16;1754694;81;22029;-61
2021/03/26 12:19:01;;;;;;;13.03;11.50;;;;;;;23.45;21.51;94916.95;1735465;81;21229;-61
2021/03/26 12:21:54;;;;;;;19.62;13.08;;;;;;;23.49;22.28;94917.41;1736754;81;21176;-64
2021/03/26 12:24:52;;;;;;;31.17;17.48;;;;;;;23.61;21.92;94913.17;1728081;81;21361;-56
2021/03/26 12:27:42;;;;;;;39.83;15.83;;;;;;;23.83;22.20;94915.78;1729838;82;21220;-56
2021/03/26 12:30:35;;;;;;;27.90;14.43;;;;;;;24.11;22.00;94914.77;1712600;81;21303;-57
2021/03/26 12:33:09;;;;;;;16.67;13.18;;;;;;;24.40;21.78;94913.88;1723407;81;21197;-61
2021/03/26 12:35:44;;;;;;;17.80;14.25;;;;;;;24.49;20.48;94909.25;1753659;81;21648;-61
2021/03/26 12:38:24;;;;;;;20.30;17.00;;;;;;;24.57;21.01;94906.72;1745471;81;21233;-59
2021/03/26 12:41:17;;;;;;;30.35;14.95;;;;;;;24.66;20.69;94902.13;1749293;80;21093;-61
2021/03/26 12:43:59;;;;;;;26.65;13.50;;;;;;;24.75;20.72;94899.56;1745534;81;21186;-64
2021/03/26 12:47:26;;;;;;;22.17;15.63;;;;;;;24.74;20.57;94893.82;1860159;75;22726;-59